createdAt,value
2017-08-16T00:00:24.103Z,21.84
2017-08-16T00:01:24.104Z,21.88
2017-08-16T00:02:24.403Z,21.76
2017-08-16T00:03:24.075Z,21.76
2017-08-16T00:04:24.063Z,21.8
2017-08-16T00:05:24.364Z,21.8
2017-08-16T00:06:24.365Z,21.79
2017-08-16T00:07:24.012Z,21.68
2017-08-16T00:08:24.313Z,21.55
2017-08-16T00:09:24.002Z,21.49
2017-08-16T00:10:24.310Z,21.41
2017-08-16T00:11:23.988Z,21.44
2017-08-16T00:12:24.263Z,21.25
2017-08-16T00:13:23.954Z,21.37
2017-08-16T00:14:24.255Z,21.28
2017-08-16T00:15:24.223Z,21.34
2017-08-16T00:16:24.214Z,21.4
2017-08-16T00:17:24.193Z,21.37
2017-08-16T00:18:24.184Z,21.43
2017-08-16T00:19:23.872Z,21.34
2017-08-16T00:20:23.865Z,21.36
2017-08-16T00:21:24.165Z,21.4
2017-08-16T00:22:24.184Z,21.39
2017-08-16T00:23:24.123Z,21.43
2017-08-16T00:24:23.841Z,21.24
2017-08-16T00:25:24.110Z,21.18
2017-08-16T00:26:24.081Z,21.17
2017-08-16T00:27:24.073Z,21.11
2017-08-16T00:28:24.089Z,21.18
2017-08-16T00:29:24.044Z,21.1
2017-08-16T00:30:24.049Z,21.07
2017-08-16T00:31:24.033Z,21.09
2017-08-16T00:32:24.024Z,21.06
2017-08-16T00:33:23.987Z,21.17
2017-08-16T00:34:23.996Z,21.1
2017-08-16T00:35:23.956Z,21.1
2017-08-16T00:36:23.763Z,21.09
2017-08-16T00:37:23.950Z,21.19
2017-08-16T00:38:23.915Z,21.17
2017-08-16T00:39:23.925Z,21.18
2017-08-16T00:40:23.944Z,21.07
2017-08-16T00:41:23.584Z,21.13
2017-08-16T00:42:23.553Z,21.17
2017-08-16T00:43:23.866Z,21.13
2017-08-16T00:44:23.542Z,21.15
2017-08-16T00:45:23.532Z,21.22
2017-08-16T00:46:23.504Z,21.11
2017-08-16T00:47:23.812Z,21.15
2017-08-16T00:48:23.481Z,21.06
2017-08-16T00:49:23.783Z,21.15
2017-08-16T00:50:23.756Z,21.06
2017-08-16T00:51:23.751Z,21.07
2017-08-16T00:52:23.422Z,21.1
2017-08-16T00:53:23.737Z,21.09
2017-08-16T00:54:23.091Z,21.06
2017-08-16T00:55:23.384Z,21.04
2017-08-16T00:56:23.407Z,21.07
2017-08-16T00:57:23.711Z,21.17
2017-08-16T00:58:23.342Z,21.15
2017-08-16T00:59:23.636Z,21.11
2017-08-16T01:00:23.623Z,21.19
2017-08-16T01:01:23.612Z,21.07
2017-08-16T01:02:23.600Z,21.13
2017-08-16T01:03:23.582Z,21.24
2017-08-16T01:04:23.572Z,21.17
2017-08-16T01:05:23.563Z,21.18
2017-08-16T01:06:23.243Z,21.04
2017-08-16T01:07:23.233Z,21.11
2017-08-16T01:08:23.523Z,20.97
2017-08-16T01:09:23.510Z,20.92
2017-08-16T01:10:23.493Z,20.92
2017-08-16T01:11:23.481Z,20.92
2017-08-16T01:12:23.462Z,20.99
2017-08-16T01:13:23.464Z,20.97
2017-08-16T01:14:23.433Z,20.97
2017-08-16T01:15:23.420Z,20.84
2017-08-16T01:16:22.802Z,20.89
2017-08-16T01:17:23.402Z,20.95
2017-08-16T01:18:23.382Z,21
2017-08-16T01:19:23.122Z,21.07
2017-08-16T01:20:23.111Z,21.04
2017-08-16T01:21:23.048Z,21.1
2017-08-16T01:22:23.031Z,20.97
2017-08-16T01:23:22.763Z,21.07
2017-08-16T01:24:23.310Z,21.04
2017-08-16T01:25:23.001Z,21.04
2017-08-16T01:26:22.983Z,21.1
2017-08-16T01:27:22.997Z,21.11
2017-08-16T01:28:22.990Z,20.99
2017-08-16T01:29:22.932Z,21.06
2017-08-16T01:30:23.232Z,21
2017-08-16T01:31:23.010Z,21.02
2017-08-16T01:32:22.581Z,21.17
2017-08-16T01:33:22.882Z,21.06
2017-08-16T01:34:23.164Z,21.11
2017-08-16T01:35:22.892Z,21.03
2017-08-16T01:36:22.941Z,21.02
2017-08-16T01:37:23.133Z,21
2017-08-16T01:38:23.231Z,21.07
2017-08-16T01:39:23.109Z,21.07
2017-08-16T01:40:22.904Z,21.11
2017-08-16T01:41:23.074Z,20.95
2017-08-16T01:42:23.138Z,20.95
2017-08-16T01:43:22.740Z,20.89
2017-08-16T01:44:23.140Z,20.85
2017-08-16T01:45:23.010Z,20.92
2017-08-16T01:46:23.115Z,20.91
2017-08-16T01:47:23.059Z,20.95
2017-08-16T01:48:22.697Z,20.89
2017-08-16T01:49:22.964Z,20.95
2017-08-16T01:50:22.962Z,21
2017-08-16T01:51:22.642Z,20.91
2017-08-16T01:52:22.970Z,20.84
2017-08-16T01:53:22.921Z,20.84
2017-08-16T01:54:22.612Z,20.88
2017-08-16T01:55:22.883Z,20.87
2017-08-16T01:56:22.921Z,20.94
2017-08-16T01:57:22.921Z,20.81
2017-08-16T01:58:22.841Z,20.89
2017-08-16T01:59:22.532Z,20.95
2017-08-16T02:00:22.523Z,20.92
2017-08-16T02:01:22.800Z,20.79
2017-08-16T02:02:22.172Z,20.82
2017-08-16T02:03:22.807Z,20.88
2017-08-16T02:04:22.450Z,20.84
2017-08-16T02:05:22.130Z,20.74
2017-08-16T02:06:22.434Z,20.69
2017-08-16T02:07:22.729Z,20.76
2017-08-16T02:08:22.721Z,20.73
2017-08-16T02:09:22.391Z,20.78
2017-08-16T02:10:22.691Z,20.85
2017-08-16T02:11:22.751Z,20.82
2017-08-16T02:12:22.674Z,20.84
2017-08-16T02:13:22.337Z,20.82
2017-08-16T02:14:22.021Z,20.84
2017-08-16T02:15:22.301Z,20.82
2017-08-16T02:16:21.993Z,20.84
2017-08-16T02:17:22.593Z,20.69
2017-08-16T02:18:22.263Z,20.73
2017-08-16T02:19:22.252Z,20.7
2017-08-16T02:20:22.541Z,20.73
2017-08-16T02:21:22.533Z,20.76
2017-08-16T02:22:22.210Z,20.64
2017-08-16T02:23:22.213Z,20.74
2017-08-16T02:24:22.492Z,20.66
2017-08-16T02:25:22.168Z,20.72
2017-08-16T02:26:22.163Z,20.66
2017-08-16T02:27:22.450Z,20.66
2017-08-16T02:28:22.432Z,20.7
2017-08-16T02:29:22.431Z,20.69
2017-08-16T02:30:22.092Z,20.72
2017-08-16T02:31:21.778Z,20.72
2017-08-16T02:32:22.382Z,20.6
2017-08-16T02:33:22.073Z,20.69
2017-08-16T02:34:22.050Z,20.63
2017-08-16T02:35:21.729Z,20.54
2017-08-16T02:36:22.017Z,20.57
2017-08-16T02:37:22.018Z,20.54
2017-08-16T02:38:21.991Z,20.55
2017-08-16T02:39:22.282Z,20.43
2017-08-16T02:40:21.983Z,20.54
2017-08-16T02:41:21.641Z,20.44
2017-08-16T02:42:21.940Z,20.49
2017-08-16T02:43:21.918Z,20.52
2017-08-16T02:44:21.924Z,20.52
2017-08-16T02:45:21.892Z,20.57
2017-08-16T02:46:21.581Z,20.63
2017-08-16T02:47:21.880Z,20.63
2017-08-16T02:48:22.181Z,20.6
2017-08-16T02:49:21.550Z,20.62
2017-08-16T02:50:22.130Z,20.55
2017-08-16T02:51:21.514Z,20.51
2017-08-16T02:52:21.801Z,20.58
2017-08-16T02:53:22.106Z,20.54
2017-08-16T02:54:22.082Z,20.67
2017-08-16T02:55:21.762Z,20.64
2017-08-16T02:56:22.043Z,20.62
2017-08-16T02:57:21.739Z,20.54
2017-08-16T02:58:22.024Z,20.66
2017-08-16T02:59:21.712Z,20.54
2017-08-16T03:00:21.701Z,20.63
2017-08-16T03:01:21.674Z,20.54
2017-08-16T03:02:21.672Z,20.67
2017-08-16T03:03:21.662Z,20.62
2017-08-16T03:04:21.641Z,20.58
2017-08-16T03:05:21.625Z,20.58
2017-08-16T03:06:21.712Z,20.62
2017-08-16T03:07:21.595Z,20.66
2017-08-16T03:08:21.630Z,20.6
2017-08-16T03:09:21.875Z,20.67
2017-08-16T03:10:21.691Z,20.63
2017-08-16T03:11:21.879Z,20.62
2017-08-16T03:12:21.576Z,20.66
2017-08-16T03:13:21.831Z,20.63
2017-08-16T03:14:21.555Z,20.57
2017-08-16T03:15:21.494Z,20.54
2017-08-16T03:16:21.574Z,20.6
2017-08-16T03:17:21.802Z,20.58
2017-08-16T03:18:21.461Z,20.66
2017-08-16T03:19:21.801Z,20.58
2017-08-16T03:20:21.480Z,20.54
2017-08-16T03:21:21.741Z,20.64
2017-08-16T03:22:21.443Z,20.7
2017-08-16T03:23:21.420Z,20.67
2017-08-16T03:24:21.679Z,20.69
2017-08-16T03:25:21.680Z,20.72
2017-08-16T03:26:21.672Z,20.69
2017-08-16T03:27:21.637Z,20.6
2017-08-16T03:28:21.629Z,20.52
2017-08-16T03:29:21.611Z,20.54
2017-08-16T03:30:21.594Z,20.49
2017-08-16T03:31:21.577Z,20.36
2017-08-16T03:32:21.562Z,20.47
2017-08-16T03:33:21.261Z,20.47
2017-08-16T03:34:21.533Z,20.41
2017-08-16T03:35:21.532Z,20.52
2017-08-16T03:36:21.504Z,20.51
2017-08-16T03:37:21.494Z,20.63
2017-08-16T03:38:21.480Z,20.57
2017-08-16T03:39:21.488Z,20.52
2017-08-16T03:40:21.141Z,20.52
2017-08-16T03:41:21.120Z,20.57
2017-08-16T03:42:21.119Z,20.49
2017-08-16T03:43:21.423Z,20.48
2017-08-16T03:44:21.390Z,20.43
2017-08-16T03:45:21.384Z,20.47
2017-08-16T03:46:21.370Z,20.38
2017-08-16T03:47:21.042Z,20.43
2017-08-16T03:48:20.730Z,20.52
2017-08-16T03:49:21.005Z,20.41
2017-08-16T03:50:21.002Z,20.36
2017-08-16T03:51:21.311Z,20.35
2017-08-16T03:52:20.983Z,20.41
2017-08-16T03:53:20.962Z,20.4
2017-08-16T03:54:20.949Z,20.29
2017-08-16T03:55:21.251Z,20.35
2017-08-16T03:56:21.243Z,20.4
2017-08-16T03:57:21.213Z,20.41
2017-08-16T03:58:21.213Z,20.36
2017-08-16T03:59:21.190Z,20.33
2017-08-16T04:00:21.171Z,20.44
2017-08-16T04:01:21.152Z,20.28
2017-08-16T04:02:21.137Z,20.31
2017-08-16T04:03:21.141Z,20.29
2017-08-16T04:04:21.121Z,20.32
2017-08-16T04:05:21.110Z,20.32
2017-08-16T04:06:21.090Z,20.29
2017-08-16T04:07:21.073Z,20.25
2017-08-16T04:08:20.775Z,20.18
2017-08-16T04:09:20.770Z,20.18
2017-08-16T04:10:21.051Z,20.22
2017-08-16T04:11:20.727Z,20.18
2017-08-16T04:12:20.702Z,20.23
2017-08-16T04:13:20.692Z,20.26
2017-08-16T04:14:20.677Z,20.31
2017-08-16T04:15:20.354Z,20.29
2017-08-16T04:16:20.640Z,20.33
2017-08-16T04:17:20.623Z,20.32
2017-08-16T04:18:20.617Z,20.32
2017-08-16T04:19:20.611Z,20.4
2017-08-16T04:20:20.890Z,20.32
2017-08-16T04:21:20.588Z,20.23
2017-08-16T04:22:20.551Z,20.22
2017-08-16T04:23:20.847Z,20.2
2017-08-16T04:24:20.860Z,20.25
2017-08-16T04:25:20.511Z,20.22
2017-08-16T04:26:20.813Z,20.23
2017-08-16T04:27:20.792Z,20.23
2017-08-16T04:28:20.798Z,20.32
2017-08-16T04:29:20.771Z,20.23
2017-08-16T04:30:20.770Z,20.22
2017-08-16T04:31:20.730Z,20.17
2017-08-16T04:32:20.100Z,20.22
2017-08-16T04:33:20.110Z,20.11
2017-08-16T04:34:20.701Z,20.13
2017-08-16T04:35:20.671Z,20.18
2017-08-16T04:36:20.371Z,20.16
2017-08-16T04:37:20.350Z,20.16
2017-08-16T04:38:20.331Z,20.2
2017-08-16T04:39:20.632Z,20.22
2017-08-16T04:40:20.607Z,20.16
2017-08-16T04:41:20.291Z,20.04
2017-08-16T04:42:20.582Z,20.1
2017-08-16T04:43:20.561Z,20.07
2017-08-16T04:44:20.551Z,20.07
2017-08-16T04:45:20.241Z,20.07
2017-08-16T04:46:20.231Z,20.08
2017-08-16T04:47:20.220Z,19.96
2017-08-16T04:48:20.204Z,20.04
2017-08-16T04:49:20.189Z,20.06
2017-08-16T04:50:20.163Z,20.04
2017-08-16T04:51:20.512Z,19.92
2017-08-16T04:52:20.131Z,19.99
2017-08-16T04:53:20.430Z,19.96
2017-08-16T04:54:20.431Z,19.99
2017-08-16T04:55:20.110Z,19.99
2017-08-16T04:56:20.390Z,19.96
2017-08-16T04:57:20.082Z,19.96
2017-08-16T04:58:20.360Z,19.83
2017-08-16T04:59:20.337Z,19.88
2017-08-16T05:00:20.330Z,19.78
2017-08-16T05:01:19.710Z,19.83
2017-08-16T05:02:20.001Z,19.92
2017-08-16T05:03:19.983Z,19.93
2017-08-16T05:04:19.964Z,19.95
2017-08-16T05:05:19.953Z,19.83
2017-08-16T05:06:19.941Z,19.95
2017-08-16T05:07:19.930Z,19.95
2017-08-16T05:08:20.211Z,19.89
2017-08-16T05:09:19.589Z,19.89
2017-08-16T05:10:20.192Z,19.96
2017-08-16T05:11:19.873Z,19.91
2017-08-16T05:12:19.922Z,19.95
2017-08-16T05:13:19.837Z,19.95
2017-08-16T05:14:19.820Z,19.92
2017-08-16T05:15:19.842Z,19.8
2017-08-16T05:16:20.123Z,19.8
2017-08-16T05:17:20.092Z,19.83
2017-08-16T05:18:19.771Z,19.85
2017-08-16T05:19:20.059Z,19.93
2017-08-16T05:20:20.073Z,19.89
2017-08-16T05:21:20.040Z,19.99
2017-08-16T05:22:19.709Z,19.98
2017-08-16T05:23:19.701Z,19.99
2017-08-16T05:24:19.991Z,19.96
2017-08-16T05:25:19.665Z,20.04
2017-08-16T05:26:19.351Z,20.08
2017-08-16T05:27:19.640Z,20.01
2017-08-16T05:28:19.421Z,20.08
2017-08-16T05:29:19.659Z,20.04
2017-08-16T05:30:19.586Z,20.1
2017-08-16T05:31:19.293Z,20.07
2017-08-16T05:32:19.562Z,20.1
2017-08-16T05:33:19.568Z,20.16
2017-08-16T05:34:19.550Z,20.22
2017-08-16T05:35:19.564Z,20.23
2017-08-16T05:36:19.214Z,20.14
2017-08-16T05:37:19.811Z,20.22
2017-08-16T05:38:19.793Z,20.2
2017-08-16T05:39:19.488Z,20.2
2017-08-16T05:40:19.773Z,20.13
2017-08-16T05:41:19.460Z,20.18
2017-08-16T05:42:19.730Z,20.18
2017-08-16T05:43:19.712Z,20.11
2017-08-16T05:44:19.710Z,20.14
2017-08-16T05:45:19.381Z,20.13
2017-08-16T05:46:19.372Z,20.2
2017-08-16T05:47:19.656Z,20.18
2017-08-16T05:48:19.421Z,20.2
2017-08-16T05:49:19.635Z,20.16
2017-08-16T05:50:19.348Z,19.96
2017-08-16T05:51:19.323Z,20.06
2017-08-16T05:52:19.598Z,20.03
2017-08-16T05:53:19.582Z,20.06
2017-08-16T05:54:19.271Z,19.99
2017-08-16T05:55:19.571Z,19.96
2017-08-16T05:56:19.550Z,20.1
2017-08-16T05:57:19.609Z,20.11
2017-08-16T05:58:19.227Z,20.18
2017-08-16T05:59:19.621Z,20.14
2017-08-16T06:00:19.192Z,20.2
2017-08-16T06:01:19.187Z,20.17
2017-08-16T06:02:19.159Z,20.22
2017-08-16T06:03:19.436Z,20.25
2017-08-16T06:04:19.135Z,20.23
2017-08-16T06:05:19.426Z,20.2
2017-08-16T06:06:19.421Z,20.31
2017-08-16T06:07:19.464Z,20.32
2017-08-16T06:08:19.371Z,20.4
2017-08-16T06:09:19.470Z,20.43
2017-08-16T06:10:19.361Z,20.44
2017-08-16T06:11:19.411Z,20.47
2017-08-16T06:12:19.320Z,20.51
2017-08-16T06:13:19.409Z,20.43
2017-08-16T06:14:19.375Z,20.52
2017-08-16T06:15:19.311Z,20.63
2017-08-16T06:16:19.272Z,20.7
2017-08-16T06:17:19.275Z,20.78
2017-08-16T06:18:19.289Z,20.69
2017-08-16T06:19:19.235Z,20.79
2017-08-16T06:20:18.908Z,20.94
2017-08-16T06:21:19.212Z,20.88
2017-08-16T06:22:19.211Z,20.89
2017-08-16T06:23:19.174Z,20.91
2017-08-16T06:24:19.210Z,20.88
2017-08-16T06:25:19.181Z,20.92
2017-08-16T06:26:19.132Z,20.82
2017-08-16T06:27:19.132Z,20.89
2017-08-16T06:28:19.192Z,20.95
2017-08-16T06:29:19.093Z,21.04
2017-08-16T06:30:18.780Z,21.07
2017-08-16T06:31:19.123Z,21.19
2017-08-16T06:32:18.731Z,21.25
2017-08-16T06:33:18.760Z,21.21
2017-08-16T06:34:18.719Z,21.33
2017-08-16T06:35:18.391Z,21.28
2017-08-16T06:36:18.691Z,21.24
2017-08-16T06:37:18.991Z,21.22
2017-08-16T06:38:18.969Z,21.29
2017-08-16T06:39:18.641Z,21.37
2017-08-16T06:40:18.650Z,21.34
2017-08-16T06:41:18.950Z,21.44
2017-08-16T06:42:18.936Z,21.39
2017-08-16T06:43:18.598Z,21.41
2017-08-16T06:44:18.900Z,21.37
2017-08-16T06:45:18.260Z,21.49
2017-08-16T06:46:18.580Z,21.4
2017-08-16T06:47:18.860Z,21.36
2017-08-16T06:48:18.541Z,21.47
2017-08-16T06:49:18.530Z,21.52
2017-08-16T06:50:18.833Z,21.44
2017-08-16T06:51:18.820Z,21.4
2017-08-16T06:52:18.792Z,21.46
2017-08-16T06:53:18.788Z,21.46
2017-08-16T06:54:18.151Z,21.41
2017-08-16T06:55:18.146Z,21.58
2017-08-16T06:56:18.784Z,21.56
2017-08-16T06:57:18.421Z,21.56
2017-08-16T06:58:18.731Z,21.61
2017-08-16T06:59:18.718Z,21.65
2017-08-16T07:00:18.691Z,21.62
2017-08-16T07:01:18.681Z,21.77
2017-08-16T07:02:18.369Z,21.58
2017-08-16T07:03:18.364Z,21.47
2017-08-16T07:04:18.655Z,21.39
2017-08-16T07:05:18.643Z,21.46
2017-08-16T07:06:18.633Z,21.52
2017-08-16T07:07:18.629Z,21.55
2017-08-16T07:08:17.993Z,21.66
2017-08-16T07:09:18.593Z,21.79
2017-08-16T07:10:18.579Z,21.93
2017-08-16T07:11:18.293Z,22.06
2017-08-16T07:12:17.923Z,22.12
2017-08-16T07:13:18.636Z,22.21
2017-08-16T07:14:18.530Z,22.27
2017-08-16T07:15:18.511Z,22.36
2017-08-16T07:16:18.212Z,22.57
2017-08-16T07:17:18.191Z,22.66
2017-08-16T07:18:18.163Z,22.65
2017-08-16T07:19:18.461Z,22.66
2017-08-16T07:20:18.441Z,22.7
2017-08-16T07:21:18.290Z,22.79
2017-08-16T07:22:18.432Z,22.91
2017-08-16T07:23:18.124Z,22.97
2017-08-16T07:24:18.401Z,23.24
2017-08-16T07:25:18.081Z,23.38
2017-08-16T07:26:18.410Z,23.63
2017-08-16T07:27:18.501Z,23.67
2017-08-16T07:28:18.361Z,23.75
2017-08-16T07:29:18.044Z,23.82
2017-08-16T07:30:18.023Z,24.36
2017-08-16T07:31:18.454Z,24.8
2017-08-16T07:32:18.333Z,25.37
2017-08-16T07:33:18.318Z,25.86
2017-08-16T07:34:17.991Z,26.38
2017-08-16T07:35:18.302Z,27.04
2017-08-16T07:36:17.983Z,27.6
2017-08-16T07:37:17.673Z,27.86
2017-08-16T07:38:18.282Z,28.35
2017-08-16T07:39:18.281Z,28.42
2017-08-16T07:40:17.953Z,28.64
2017-08-16T07:41:18.261Z,29.21
2017-08-16T07:42:18.293Z,29.58
2017-08-16T07:43:18.258Z,29.92
2017-08-16T07:44:17.935Z,30.25
2017-08-16T07:45:17.953Z,30.56
2017-08-16T07:46:18.251Z,30.86
2017-08-16T07:47:18.252Z,31.01
2017-08-16T07:48:17.650Z,31.2
2017-08-16T07:49:18.242Z,31.37
2017-08-16T07:50:18.232Z,31.52
2017-08-16T07:51:18.238Z,31.44
2017-08-16T07:52:18.235Z,30.77
2017-08-16T07:53:17.924Z,30.64
2017-08-16T07:54:17.904Z,30.61
2017-08-16T07:55:18.214Z,30.58
2017-08-16T07:56:17.978Z,30.74
2017-08-16T07:57:18.221Z,30.54
2017-08-16T07:58:18.217Z,30.63
2017-08-16T07:59:17.608Z,30.88
2017-08-16T08:00:18.287Z,31.1
2017-08-16T08:01:18.261Z,31.49
2017-08-16T08:02:17.951Z,31.85
2017-08-16T08:03:18.252Z,32.05
2017-08-16T08:04:18.203Z,31.97
2017-08-16T08:05:17.902Z,31.98
2017-08-16T08:06:17.594Z,32.14
2017-08-16T08:07:17.895Z,32.34
2017-08-16T08:08:18.200Z,32.5
2017-08-16T08:09:18.215Z,32.31
2017-08-16T08:10:18.202Z,32.17
2017-08-16T08:11:18.213Z,32.17
2017-08-16T08:12:18.211Z,32.26
2017-08-16T08:13:18.204Z,31.94
2017-08-16T08:14:18.212Z,31.63
2017-08-16T08:15:18.213Z,31.32
2017-08-16T08:16:18.220Z,31.59
2017-08-16T08:17:18.231Z,31.85
2017-08-16T08:18:18.221Z,32.02
2017-08-16T08:19:17.934Z,32.12
2017-08-16T08:20:18.223Z,32.53
2017-08-16T08:21:18.025Z,32.72
2017-08-16T08:22:18.213Z,32.58
2017-08-16T08:23:18.232Z,32.6
2017-08-16T08:24:18.261Z,32.41
2017-08-16T08:25:18.232Z,32.34
2017-08-16T08:26:18.255Z,32.32
2017-08-16T08:27:18.035Z,32.57
2017-08-16T08:28:18.242Z,32.84
2017-08-16T08:29:18.264Z,32.73
2017-08-16T08:30:18.321Z,32.87
2017-08-16T08:31:17.932Z,32.9
2017-08-16T08:32:18.008Z,32.92
2017-08-16T08:33:17.643Z,32.91
2017-08-16T08:34:17.953Z,32.87
2017-08-16T08:35:18.242Z,32.73
2017-08-16T08:36:18.253Z,32.76
2017-08-16T08:37:18.243Z,32.85
2017-08-16T08:38:18.250Z,32.57
2017-08-16T08:39:17.962Z,32.66
2017-08-16T08:40:18.243Z,32.87
2017-08-16T08:41:17.966Z,32.9
2017-08-16T08:42:17.965Z,33
2017-08-16T08:43:18.284Z,33.13
2017-08-16T08:44:18.393Z,33.28
2017-08-16T08:45:17.673Z,33.22
2017-08-16T08:46:18.322Z,33.24
2017-08-16T08:47:18.304Z,33.29
2017-08-16T08:48:18.393Z,33.29
2017-08-16T08:49:17.982Z,33.19
2017-08-16T08:50:18.281Z,33.05
2017-08-16T08:51:18.331Z,32.95
2017-08-16T08:52:18.342Z,32.84
2017-08-16T08:53:18.330Z,32.78
2017-08-16T08:54:17.683Z,32.82
2017-08-16T08:55:17.988Z,32.88
2017-08-16T08:56:18.021Z,32.76
2017-08-16T08:57:18.001Z,32.69
2017-08-16T08:58:17.993Z,32.6
2017-08-16T08:59:18.327Z,32.56
2017-08-16T09:00:18.013Z,32.5
2017-08-16T09:01:18.331Z,32.34
2017-08-16T09:02:18.346Z,32.34
2017-08-16T09:03:18.013Z,32.5
2017-08-16T09:04:18.321Z,32.32
2017-08-16T09:05:18.322Z,32.45
2017-08-16T09:06:18.322Z,32.58
2017-08-16T09:07:18.371Z,32.64
2017-08-16T09:08:18.341Z,32.56
2017-08-16T09:09:18.350Z,32.63
2017-08-16T09:10:18.032Z,32.54
2017-08-16T09:11:18.498Z,32.08
2017-08-16T09:12:18.362Z,31.79
2017-08-16T09:13:18.407Z,31.85
2017-08-16T09:14:18.360Z,31.95
2017-08-16T09:15:18.069Z,32.26
2017-08-16T09:16:17.741Z,32.5
2017-08-16T09:17:18.381Z,32.6
2017-08-16T09:18:18.402Z,32.51
2017-08-16T09:19:18.061Z,32.42
2017-08-16T09:20:18.063Z,32.53
2017-08-16T09:21:18.378Z,32.56
2017-08-16T09:22:18.381Z,32.7
2017-08-16T09:23:18.083Z,32.73
2017-08-16T09:24:18.380Z,32.87
2017-08-16T09:25:18.372Z,32.92
2017-08-16T09:26:18.082Z,33.05
2017-08-16T09:27:18.393Z,33.17
2017-08-16T09:28:18.090Z,33.36
2017-08-16T09:29:17.781Z,33.06
2017-08-16T09:30:18.103Z,33.06
2017-08-16T09:31:18.384Z,33.24
2017-08-16T09:32:18.405Z,33.19
2017-08-16T09:33:18.095Z,33.35
2017-08-16T09:34:18.520Z,33.52
2017-08-16T09:35:18.413Z,33.35
2017-08-16T09:36:18.420Z,33.1
2017-08-16T09:37:18.472Z,32.9
2017-08-16T09:38:18.112Z,32.82
2017-08-16T09:39:18.410Z,32.88
2017-08-16T09:40:18.111Z,33.03
2017-08-16T09:41:18.430Z,33.14
2017-08-16T09:42:18.434Z,33.13
2017-08-16T09:43:18.120Z,33.24
2017-08-16T09:44:17.811Z,33.28
2017-08-16T09:45:18.429Z,33.1
2017-08-16T09:46:18.109Z,33.12
2017-08-16T09:47:18.420Z,33.12
2017-08-16T09:48:18.131Z,33.21
2017-08-16T09:49:18.450Z,33.12
2017-08-16T09:50:18.119Z,33.09
2017-08-16T09:51:18.544Z,33
2017-08-16T09:52:18.451Z,33.13
2017-08-16T09:53:18.442Z,33.06
2017-08-16T09:54:18.439Z,32.84
2017-08-16T09:55:17.890Z,32.9
2017-08-16T09:56:18.160Z,33.06
2017-08-16T09:57:18.550Z,33.05
2017-08-16T09:58:18.458Z,33.06
2017-08-16T09:59:18.200Z,32.78
2017-08-16T10:00:18.149Z,32.92
2017-08-16T10:01:18.139Z,32.98
2017-08-16T10:02:18.459Z,33
2017-08-16T10:03:18.452Z,32.95
2017-08-16T10:04:18.459Z,33.03
2017-08-16T10:05:18.465Z,32.95
2017-08-16T10:06:18.168Z,32.92
2017-08-16T10:07:17.842Z,33.01
2017-08-16T10:08:18.159Z,33.22
2017-08-16T10:09:17.840Z,33.28
2017-08-16T10:10:18.468Z,33.09
2017-08-16T10:11:18.164Z,32.66
2017-08-16T10:12:18.450Z,32.09
2017-08-16T10:13:18.149Z,31.63
2017-08-16T10:14:18.460Z,30.61
2017-08-16T10:15:18.462Z,30.29
2017-08-16T10:16:18.449Z,30.33
2017-08-16T10:17:18.451Z,30.54
2017-08-16T10:18:18.568Z,30.63
2017-08-16T10:19:18.430Z,30.61
2017-08-16T10:20:18.131Z,30.51
2017-08-16T10:21:18.138Z,30.51
2017-08-16T10:22:18.509Z,30.21
2017-08-16T10:23:18.120Z,30.02
2017-08-16T10:24:18.120Z,30.1
2017-08-16T10:25:18.140Z,30.1
2017-08-16T10:26:18.130Z,30.08
2017-08-16T10:27:18.404Z,30.17
2017-08-16T10:28:18.155Z,30.1
2017-08-16T10:29:18.084Z,30.05
2017-08-16T10:30:18.390Z,30.32
2017-08-16T10:31:18.379Z,30.17
2017-08-16T10:32:18.397Z,29.62
2017-08-16T10:33:18.420Z,29.51
2017-08-16T10:34:18.360Z,29.61
2017-08-16T10:35:18.370Z,29.88
2017-08-16T10:36:18.040Z,29.91
2017-08-16T10:37:18.350Z,30.03
2017-08-16T10:38:18.350Z,30.07
2017-08-16T10:39:18.114Z,30.23
2017-08-16T10:40:18.349Z,30.26
2017-08-16T10:41:18.319Z,30.21
2017-08-16T10:42:18.316Z,30.18
2017-08-16T10:43:18.070Z,30.1
2017-08-16T10:44:17.993Z,30.1
2017-08-16T10:45:18.300Z,30.1
2017-08-16T10:46:18.301Z,30.17
2017-08-16T10:47:18.028Z,30.29
2017-08-16T10:48:18.288Z,30.05
2017-08-16T10:49:18.089Z,29.83
2017-08-16T10:50:17.671Z,29.98
2017-08-16T10:51:18.309Z,30.2
2017-08-16T10:52:18.248Z,30.2
2017-08-16T10:53:18.347Z,30.07
2017-08-16T10:54:17.951Z,30.21
2017-08-16T10:55:17.996Z,30.26
2017-08-16T10:56:17.929Z,30.2
2017-08-16T10:57:18.341Z,30.14
2017-08-16T10:58:18.021Z,30.28
2017-08-16T10:59:17.933Z,30.45
2017-08-16T11:00:18.225Z,30.39
2017-08-16T11:01:17.999Z,30.25
2017-08-16T11:02:17.906Z,30.18
2017-08-16T11:03:18.198Z,30.05
2017-08-16T11:04:18.239Z,30.1
2017-08-16T11:05:17.880Z,30.07
2017-08-16T11:06:18.178Z,30.1
2017-08-16T11:07:17.859Z,30.13
2017-08-16T11:08:17.852Z,29.84
2017-08-16T11:09:17.860Z,29.92
2017-08-16T11:10:17.893Z,29.89
2017-08-16T11:11:17.838Z,29.88
2017-08-16T11:12:18.149Z,29.66
2017-08-16T11:13:18.128Z,29.65
2017-08-16T11:14:18.123Z,29.59
2017-08-16T11:15:17.811Z,29.73
2017-08-16T11:16:17.816Z,29.52
2017-08-16T11:17:17.791Z,29.47
2017-08-16T11:18:18.098Z,29.62
2017-08-16T11:19:18.085Z,29.81
2017-08-16T11:20:18.111Z,29.84
2017-08-16T11:21:18.089Z,29.37
2017-08-16T11:22:17.773Z,29.37
2017-08-16T11:23:18.059Z,29.1
2017-08-16T11:24:18.048Z,28.95
2017-08-16T11:25:17.738Z,28.8
2017-08-16T11:26:17.756Z,29.03
2017-08-16T11:27:17.737Z,29.18
2017-08-16T11:28:17.797Z,28.97
2017-08-16T11:29:17.714Z,28.56
2017-08-16T11:30:18.010Z,28.42
2017-08-16T11:31:17.720Z,28.46
2017-08-16T11:32:17.387Z,28.31
2017-08-16T11:33:17.693Z,28.28
2017-08-16T11:34:17.431Z,28.55
2017-08-16T11:35:18.079Z,28.82
2017-08-16T11:36:17.364Z,29.05
2017-08-16T11:37:17.684Z,29.14
2017-08-16T11:38:17.649Z,29.39
2017-08-16T11:39:17.970Z,29.35
2017-08-16T11:40:17.992Z,28.87
2017-08-16T11:41:17.959Z,28.72
2017-08-16T11:42:17.916Z,28.87
2017-08-16T11:43:17.630Z,28.92
2017-08-16T11:44:17.619Z,29.05
2017-08-16T11:45:17.910Z,28.93
2017-08-16T11:46:17.608Z,28.82
2017-08-16T11:47:17.913Z,28.5
2017-08-16T11:48:17.581Z,28.19
2017-08-16T11:49:17.889Z,27.38
2017-08-16T11:50:17.257Z,27.09
2017-08-16T11:51:17.582Z,27.21
2017-08-16T11:52:17.258Z,27.13
2017-08-16T11:53:17.839Z,27.44
2017-08-16T11:54:17.854Z,27.52
2017-08-16T11:55:17.878Z,27.86
2017-08-16T11:56:17.209Z,27.98
2017-08-16T11:57:17.869Z,28.08
2017-08-16T11:58:17.507Z,28.28
2017-08-16T11:59:17.503Z,28.5
2017-08-16T12:00:17.185Z,28.5
2017-08-16T12:01:17.487Z,28.61
2017-08-16T12:02:17.789Z,28.83
2017-08-16T12:03:17.463Z,28.92
2017-08-16T12:04:17.526Z,28.93
2017-08-16T12:05:17.167Z,28.89
2017-08-16T12:06:17.456Z,28.76
2017-08-16T12:07:17.449Z,28.52
2017-08-16T12:08:17.862Z,28.5
2017-08-16T12:09:17.728Z,28.64
2017-08-16T12:10:17.718Z,28.87
2017-08-16T12:11:17.729Z,28.7
2017-08-16T12:12:18.010Z,28.09
2017-08-16T12:13:17.742Z,27.76
2017-08-16T12:14:17.709Z,27.91
2017-08-16T12:15:17.069Z,28.18
2017-08-16T12:16:17.688Z,28.35
2017-08-16T12:17:17.052Z,28.43
2017-08-16T12:18:17.038Z,28.58
2017-08-16T12:19:17.708Z,28.8
2017-08-16T12:20:17.652Z,28.9
2017-08-16T12:21:17.340Z,29.18
2017-08-16T12:22:17.352Z,29.43
2017-08-16T12:23:17.316Z,29.64
2017-08-16T12:24:17.011Z,29.73
2017-08-16T12:25:17.657Z,29.77
2017-08-16T12:26:17.605Z,29.83
2017-08-16T12:27:17.662Z,29.94
2017-08-16T12:28:17.300Z,30.01
2017-08-16T12:29:17.290Z,30.18
2017-08-16T12:30:17.258Z,30.21
2017-08-16T12:31:17.580Z,30.26
2017-08-16T12:32:17.563Z,30.31
2017-08-16T12:33:17.549Z,30.38
2017-08-16T12:34:17.549Z,30.07
2017-08-16T12:35:17.223Z,30.03
2017-08-16T12:36:17.549Z,29.66
2017-08-16T12:37:17.528Z,29.7
2017-08-16T12:38:17.507Z,29.8
2017-08-16T12:39:17.506Z,29.89
2017-08-16T12:40:17.200Z,29.88
2017-08-16T12:41:17.507Z,29.92
2017-08-16T12:42:17.481Z,29.81
2017-08-16T12:43:17.485Z,29.58
2017-08-16T12:44:17.163Z,29.43
2017-08-16T12:45:17.458Z,29.64
2017-08-16T12:46:17.473Z,29.47
2017-08-16T12:47:16.852Z,29.43
2017-08-16T12:48:17.438Z,29.58
2017-08-16T12:49:17.149Z,29.43
2017-08-16T12:50:17.140Z,29.51
2017-08-16T12:51:17.419Z,29.58
2017-08-16T12:52:17.100Z,29.58
2017-08-16T12:53:17.102Z,29.73
2017-08-16T12:54:17.098Z,29.68
2017-08-16T12:55:17.088Z,29.73